createdAt,value
2019-04-05T00:00:37.522Z,7.33
2019-04-05T00:04:41.139Z,7.34
2019-04-05T00:08:44.751Z,7.31
2019-04-05T00:12:48.364Z,7.32
2019-04-05T00:16:52.093Z,7.31
2019-04-05T00:20:55.711Z,7.32
2019-04-05T00:24:59.314Z,7.39
2019-04-05T00:29:03.229Z,7.39
2019-04-05T00:33:06.971Z,7.42
2019-04-05T00:37:10.663Z,7.40
2019-04-05T00:41:14.275Z,7.45
2019-04-05T00:45:27.448Z,7.37
2019-04-05T00:49:23.551Z,7.43
2019-04-05T00:53:27.268Z,7.39
2019-04-05T00:57:30.988Z,7.36
2019-04-05T01:01:35.000Z,7.37
2019-04-05T01:05:39.645Z,7.33
2019-04-05T01:09:43.360Z,7.30
2019-04-05T01:13:47.078Z,7.29
2019-04-05T01:17:51.099Z,7.27
2019-04-05T01:21:56.351Z,7.31
2019-04-05T01:26:01.762Z,7.42
2019-04-05T01:30:11.772Z,7.30
2019-04-05T01:34:15.547Z,7.30
2019-04-05T01:38:19.410Z,7.25
2019-04-05T01:42:23.330Z,7.26
2019-04-05T01:46:27.047Z,7.28
2019-04-05T01:50:31.073Z,7.28
2019-04-05T01:54:34.789Z,7.27
2019-04-05T01:58:38.402Z,7.32
2019-04-05T02:02:42.534Z,7.29
2019-04-05T02:06:46.260Z,7.30
2019-04-05T02:10:49.979Z,7.33
2019-04-05T02:14:53.606Z,7.25
2019-04-05T02:18:57.211Z,7.22
2019-04-05T02:23:01.054Z,7.23
2019-04-05T02:27:04.846Z,7.29
2019-04-05T02:31:08.572Z,7.21
2019-04-05T02:35:12.788Z,7.21
2019-04-05T02:39:16.503Z,7.21
2019-04-05T02:43:21.755Z,7.24
2019-04-05T02:47:25.779Z,7.21
2019-04-05T02:51:31.749Z,7.24
2019-04-05T02:55:37.761Z,7.16
2019-04-05T02:59:42.425Z,7.15
2019-04-05T03:03:46.379Z,7.16
2019-04-05T03:07:50.402Z,7.16
2019-04-05T03:11:54.625Z,7.20
2019-04-05T03:16:01.561Z,7.21
2019-04-05T03:20:06.636Z,7.16
2019-04-05T03:24:13.367Z,7.20
2019-04-05T03:28:17.570Z,7.24
2019-04-05T03:32:21.557Z,7.27
2019-04-05T03:36:25.685Z,7.23
2019-04-05T03:40:29.654Z,7.28
2019-04-05T03:44:33.609Z,7.34
2019-04-05T03:48:37.444Z,7.33
2019-04-05T03:52:41.314Z,7.33
2019-04-05T03:56:45.012Z,7.35
2019-04-05T04:00:48.757Z,7.28
2019-04-05T04:04:52.554Z,7.20
2019-04-05T04:08:56.733Z,7.31
2019-04-05T04:13:00.750Z,7.46
2019-04-05T04:17:12.760Z,7.23
2019-04-05T04:21:34.152Z,7.20
2019-04-05T04:25:39.186Z,7.17
2019-04-05T04:29:42.919Z,7.19
2019-04-05T04:33:47.351Z,7.36
2019-04-05T04:37:51.375Z,7.18
2019-04-05T04:41:55.194Z,7.10
2019-04-05T04:45:59.111Z,7.06
2019-04-05T04:50:03.008Z,7.03
2019-04-05T04:54:06.855Z,7.04
2019-04-05T04:58:10.876Z,7.08
2019-04-05T05:02:14.695Z,7.09
2019-04-05T05:06:18.512Z,7.09
2019-04-05T05:10:22.434Z,7.16
2019-04-05T05:14:27.199Z,7.11
2019-04-05T05:18:31.049Z,7.16
2019-04-05T05:22:35.326Z,7.15
2019-04-05T05:26:39.449Z,7.13
2019-04-05T05:30:43.266Z,7.24
2019-04-05T05:34:47.191Z,7.25
2019-04-05T05:38:51.475Z,7.23
2019-04-05T05:42:55.233Z,7.21
2019-04-05T05:46:58.950Z,7.24
2019-04-05T05:51:02.828Z,7.29
2019-04-05T05:55:06.994Z,7.36
2019-04-05T05:59:10.611Z,7.47
2019-04-05T06:03:16.662Z,7.38
2019-04-05T06:07:20.175Z,7.45
2019-04-05T06:11:24.011Z,7.54
2019-04-05T06:15:27.629Z,7.54
2019-04-05T06:19:31.237Z,7.52
2019-04-05T06:23:34.854Z,7.63
2019-04-05T06:27:38.568Z,7.64
2019-04-05T06:31:42.331Z,7.57
2019-04-05T06:35:45.941Z,7.69
2019-04-05T06:39:49.717Z,7.71
2019-04-05T06:43:53.279Z,7.73
2019-04-05T06:47:56.944Z,7.76
2019-04-05T06:52:00.558Z,7.81
2019-04-05T06:56:04.386Z,7.90
2019-04-05T07:00:08.295Z,8.01
2019-04-05T07:04:11.967Z,8.08
2019-04-05T07:08:18.143Z,7.99
2019-04-05T07:12:20.965Z,8.18
2019-04-05T07:16:24.653Z,8.18
2019-04-05T07:20:28.267Z,8.29
2019-04-05T07:24:31.878Z,8.14
2019-04-05T07:28:35.597Z,8.16
2019-04-05T07:32:39.209Z,8.31
2019-04-05T07:36:42.826Z,8.14
2019-04-05T07:40:46.538Z,8.32
2019-04-05T07:44:51.282Z,8.40
2019-04-05T07:48:54.997Z,8.56
2019-04-05T07:52:58.673Z,8.65
2019-04-05T07:57:02.439Z,8.78
2019-04-05T08:01:06.535Z,8.94
2019-04-05T08:05:10.169Z,8.56
2019-04-05T08:09:15.679Z,8.47
2019-04-05T08:13:20.615Z,8.65
2019-04-05T08:17:24.390Z,8.58
2019-04-05T08:21:28.004Z,8.62
2019-04-05T08:25:32.764Z,8.66
2019-04-05T08:29:36.357Z,8.81
2019-04-05T08:33:40.074Z,8.92
2019-04-05T08:37:44.211Z,8.81
2019-04-05T08:41:47.921Z,8.58
2019-04-05T08:45:51.528Z,8.54
2019-04-05T08:49:55.139Z,8.59
2019-04-05T08:53:58.861Z,8.76
2019-04-05T08:58:02.497Z,8.84
2019-04-05T09:02:06.088Z,8.85
2019-04-05T09:06:09.809Z,8.90
2019-04-05T09:10:13.723Z,8.94
2019-04-05T09:14:17.335Z,8.75
2019-04-05T09:18:20.953Z,9.01
2019-04-05T09:22:24.629Z,9.28
2019-04-05T09:26:28.278Z,9.26
2019-04-05T09:30:31.996Z,8.98
2019-04-05T09:34:35.610Z,9.37
2019-04-05T09:38:39.327Z,9.37
2019-04-05T09:42:43.046Z,9.47
2019-04-05T09:46:50.875Z,9.71
2019-04-05T09:50:52.013Z,9.63
2019-04-05T09:54:56.859Z,9.50
2019-04-05T09:59:00.470Z,9.49
2019-04-05T10:03:04.288Z,9.52
2019-04-05T10:07:08.515Z,9.49
2019-04-05T10:11:12.230Z,9.17
2019-04-05T10:15:16.360Z,9.10
2019-04-05T10:19:19.970Z,9.45
2019-04-05T10:23:23.584Z,9.69
2019-04-05T10:27:27.202Z,9.65
2019-04-05T10:31:30.812Z,9.70
2019-04-05T10:35:34.427Z,9.69
2019-04-05T10:39:38.042Z,9.80
2019-04-05T10:43:41.757Z,9.87
2019-04-05T10:47:45.327Z,9.61
2019-04-05T10:51:49.191Z,9.78
2019-04-05T10:55:52.911Z,9.89
2019-04-05T10:59:56.620Z,10.18
2019-04-05T11:04:00.345Z,10.41
2019-04-05T11:08:04.063Z,10.01
2019-04-05T11:12:08.757Z,10.01
2019-04-05T11:16:13.438Z,9.69
2019-04-05T11:20:21.780Z,9.93
2019-04-05T11:24:22.815Z,9.93
2019-04-05T11:28:26.531Z,9.76
2019-04-05T11:32:30.760Z,10.02
2019-04-05T11:36:34.850Z,10.28
2019-04-05T11:40:39.040Z,10.33
2019-04-05T11:44:43.337Z,10.46
2019-04-05T11:48:47.912Z,10.62
2019-04-05T11:52:51.694Z,10.52
2019-04-05T11:56:55.561Z,10.49
2019-04-05T12:01:19.026Z,10.42
2019-04-05T12:05:37.150Z,10.52
2019-04-05T12:09:40.840Z,10.77
2019-04-05T12:13:47.410Z,10.37
2019-04-05T12:17:49.777Z,10.65
2019-04-05T12:21:53.381Z,10.41
2019-04-05T12:25:57.098Z,10.39
2019-04-05T12:30:00.712Z,10.03
2019-04-05T12:34:05.361Z,10.03
2019-04-05T12:38:09.071Z,10.02
2019-04-05T12:42:13.033Z,10.31
2019-04-05T12:46:16.913Z,10.12
2019-04-05T12:50:20.625Z,10.03
2019-04-05T12:54:24.340Z,9.94
2019-04-05T12:58:27.952Z,9.63
2019-04-05T13:02:33.887Z,9.73
2019-04-05T13:06:37.023Z,10.06
2019-04-05T13:10:40.795Z,9.94
2019-04-05T13:14:44.309Z,10.14
2019-04-05T13:18:47.970Z,10.05
2019-04-05T13:22:51.587Z,10.17
2019-04-05T13:26:55.298Z,9.98
2019-04-05T13:30:59.020Z,9.81
2019-04-05T13:35:02.592Z,9.88
2019-04-05T13:39:07.679Z,9.98
2019-04-05T13:43:11.292Z,9.99
2019-04-05T13:47:15.058Z,10.06
2019-04-05T13:51:27.707Z,10.31
2019-04-05T13:55:24.079Z,10.31
2019-04-05T13:59:28.511Z,10.19
2019-04-05T14:03:32.583Z,10.32
2019-04-05T14:07:36.351Z,10.43
2019-04-05T14:11:40.143Z,10.14
2019-04-05T14:15:43.929Z,10.29
2019-04-05T14:19:48.748Z,10.31
2019-04-05T14:23:53.915Z,10.31
2019-04-05T14:27:57.512Z,10.35
2019-04-05T14:32:19.470Z,10.40
2019-04-05T14:36:06.668Z,10.41
2019-04-05T14:40:13.868Z,10.43
2019-04-05T14:44:16.352Z,10.43
2019-04-05T14:48:19.963Z,10.60
2019-04-05T14:52:25.644Z,10.67
2019-04-05T14:56:29.316Z,10.79
2019-04-05T15:00:33.370Z,10.70
2019-04-05T15:04:36.992Z,10.66
2019-04-05T15:08:40.817Z,10.45
2019-04-05T15:12:44.413Z,10.26
2019-04-05T15:16:48.131Z,9.99
2019-04-05T15:20:51.709Z,9.99
2019-04-05T15:24:56.380Z,9.90
2019-04-05T15:29:00.098Z,9.79
2019-04-05T15:33:04.306Z,9.76
2019-04-05T15:37:07.938Z,9.72
2019-04-05T15:41:11.657Z,9.77
2019-04-05T15:45:16.612Z,9.77
2019-04-05T15:49:21.560Z,9.73
2019-04-05T15:53:26.286Z,9.77
2019-04-05T15:57:33.462Z,9.69
2019-04-05T16:01:35.354Z,9.68
2019-04-05T16:05:39.174Z,9.59
2019-04-05T16:09:42.787Z,9.53
2019-04-05T16:13:46.403Z,9.58
2019-04-05T16:17:50.017Z,9.53
2019-04-05T16:21:53.583Z,9.57
2019-04-05T16:25:57.240Z,9.51
2019-04-05T16:30:00.864Z,9.46
2019-04-05T16:34:04.676Z,9.47
2019-04-05T16:38:08.312Z,9.46
2019-04-05T16:42:12.009Z,9.53
2019-04-05T16:46:15.635Z,9.38
2019-04-05T16:50:21.387Z,9.32
2019-04-05T16:54:25.001Z,9.18
2019-04-05T16:58:28.716Z,9.15
2019-04-05T17:02:33.405Z,9.13
2019-04-05T17:06:37.141Z,9.13
2019-04-05T17:10:40.918Z,9.04
2019-04-05T17:15:05.477Z,9.14
2019-04-05T17:19:09.094Z,9.11
2019-04-05T17:23:12.710Z,9.05
2019-04-05T17:27:16.298Z,9.08
2019-04-05T17:31:20.013Z,9.23
2019-04-05T17:35:23.629Z,9.10
2019-04-05T17:39:27.343Z,9.20
2019-04-05T17:43:31.060Z,9.26
2019-04-05T17:47:34.777Z,9.23
2019-04-05T17:51:38.389Z,9.14
2019-04-05T17:55:42.356Z,8.92
2019-04-05T17:59:48.383Z,8.80
2019-04-05T18:03:52.101Z,8.87
2019-04-05T18:07:55.815Z,9.11
2019-04-05T18:11:59.433Z,9.03
2019-04-05T18:16:03.358Z,8.84
2019-04-05T18:20:09.894Z,8.79
2019-04-05T18:24:13.648Z,8.84
2019-04-05T18:28:17.270Z,8.73
2019-04-05T18:32:20.882Z,8.72
2019-04-05T18:36:24.694Z,8.67
2019-04-05T18:40:39.487Z,8.72
2019-04-05T18:44:34.589Z,8.64
2019-04-05T18:48:38.212Z,8.49
2019-04-05T18:52:44.245Z,8.59
2019-04-05T18:56:47.988Z,8.65
2019-04-05T19:00:53.563Z,8.67
2019-04-05T19:04:57.497Z,8.54
2019-04-05T19:09:01.624Z,8.44
2019-04-05T19:13:05.766Z,8.49
2019-04-05T19:17:22.851Z,8.41
2019-04-05T19:21:15.851Z,8.40
2019-04-05T19:25:20.124Z,8.32
2019-04-05T19:29:24.355Z,8.34
2019-04-05T19:49:50.840Z,8.69
2019-04-05T19:54:01.328Z,8.81
2019-04-05T19:58:02.979Z,8.73
2019-04-05T20:02:06.798Z,8.65
2019-04-05T20:06:10.720Z,8.72
2019-04-05T20:10:14.651Z,8.78
2019-04-05T20:14:18.286Z,8.81
2019-04-05T20:18:22.040Z,8.73
2019-04-05T20:22:25.687Z,8.63
2019-04-05T20:26:29.301Z,8.56
2019-04-05T20:30:32.916Z,8.54
2019-04-05T20:34:36.734Z,8.52
2019-04-05T20:38:41.378Z,8.53
2019-04-05T20:42:44.986Z,8.53
2019-04-05T20:46:48.905Z,8.55
2019-04-05T20:50:52.519Z,8.54
2019-04-05T20:54:56.239Z,8.54
2019-04-05T20:59:01.281Z,8.53
2019-04-05T21:03:05.103Z,8.50
2019-04-05T21:07:08.719Z,8.55
2019-04-05T21:11:12.432Z,8.46
2019-04-05T21:15:16.043Z,8.53
2019-04-05T21:19:19.607Z,8.57
2019-04-05T21:23:23.273Z,8.58
2019-04-05T21:27:26.897Z,8.84
2019-04-05T21:31:30.618Z,8.68
2019-04-05T21:35:34.229Z,8.56
2019-04-05T21:39:38.763Z,8.48
2019-04-05T21:43:44.527Z,8.46
2019-04-05T21:47:48.142Z,8.45
2019-04-05T21:51:51.753Z,8.40
2019-04-05T21:55:55.469Z,8.36
2019-04-05T21:59:59.082Z,8.24
2019-04-05T22:04:03.122Z,8.10
2019-04-05T22:08:06.730Z,7.90
2019-04-05T22:12:10.338Z,7.68
2019-04-05T22:16:14.253Z,7.45
2019-04-05T22:20:18.804Z,7.20
2019-04-05T22:24:22.406Z,7.06
2019-04-05T22:28:26.325Z,6.92
2019-04-05T22:32:29.937Z,6.73
2019-04-05T22:36:33.654Z,6.67
2019-04-05T22:40:37.269Z,6.61
2019-04-05T22:44:41.618Z,6.46
2019-04-05T22:48:45.518Z,6.40
2019-04-05T22:52:49.131Z,6.26
2019-04-05T22:56:52.682Z,5.91
2019-04-05T23:00:56.405Z,5.81
2019-04-05T23:05:01.015Z,5.79
2019-04-05T23:09:07.039Z,5.66
2019-04-05T23:13:10.786Z,5.64
2019-04-05T23:17:14.736Z,5.55
2019-04-05T23:21:18.326Z,5.49
2019-04-05T23:25:22.506Z,5.31
2019-04-05T23:29:26.264Z,5.39
2019-04-05T23:33:29.876Z,5.42
2019-04-05T23:37:33.592Z,5.18
2019-04-05T23:41:37.305Z,5.28
2019-04-05T23:45:40.923Z,4.98
2019-04-05T23:49:44.639Z,4.82
2019-04-05T23:53:48.253Z,4.69
2019-04-05T23:57:51.868Z,4.71
